Time;durP1;ratioP1;P1;durP2;ratioP2;P2;SDS_P1;SDS_P2;PMS_P1;PMS_P2;Temp;Humidity;BMP_temperature;BMP_pressure;BME280_temperature;BME280_humidity;BME280_pressure;Samples;Min_cycle;Max_cycle;Signal;HPM_P1;HPM_P2
2021/12/24 00:00:58;;;;;;;32.17;12.80;;;;;;;;;;5092725;28;20086;-74
2021/12/24 00:03:24;;;;;;;36.65;12.75;;;;;;;;;;5092338;28;20052;-75
2021/12/24 00:05:51;;;;;;;36.40;13.05;;;;;;;;;;5092520;28;20044;-74
2021/12/24 00:08:17;;;;;;;41.85;13.00;;;;;;;;;;5092282;28;20055;-74
2021/12/24 00:10:45;;;;;;;41.13;12.93;;;;;;;;;;5092382;28;20036;-74
2021/12/24 00:13:14;;;;;;;37.03;12.48;;;;;;;;;;5092765;28;20044;-74
2021/12/24 00:16:02;;;;;;;43.67;13.35;;;;;;;;;;5109611;28;20121;-74
2021/12/24 00:18:52;;;;;;;40.47;13.40;;;;;;;;;;5092639;28;20056;-75
2021/12/24 00:35:17;;;;;;;27.67;12.43;;;;;;;;;;5108881;28;20454;-74
2021/12/24 00:37:45;;;;;;;35.08;12.70;;;;;;;;;;5109127;28;20040;-74
2021/12/24 00:40:18;;;;;;;37.88;13.43;;;;;;;;;;5091890;28;20043;-74
2021/12/24 00:42:46;;;;;;;33.63;12.30;;;;;;;;;;5091854;28;20120;-73
2021/12/24 00:45:14;;;;;;;33.28;12.25;;;;;;;;;;5108794;28;20499;-74
2021/12/24 00:47:40;;;;;;;32.20;11.88;;;;;;;;;;5091537;28;20040;-74
2021/12/24 00:50:09;;;;;;;28.90;11.45;;;;;;;;;;5091943;28;20043;-74
2021/12/24 00:55:14;;;;;;;31.55;10.68;;;;;;;;;;5105077;28;20436;-74
2021/12/24 00:57:42;;;;;;;29.77;11.85;;;;;;;;;;5087763;28;20093;-74
2021/12/24 01:00:13;;;;;;;31.27;10.98;;;;;;;;;;5088036;28;20407;-74
2021/12/24 01:02:39;;;;;;;25.00;10.50;;;;;;;;;;5088193;28;20057;-75
2021/12/24 01:05:05;;;;;;;32.67;11.88;;;;;;;;;;5087927;28;20048;-74
2021/12/24 01:07:31;;;;;;;26.33;10.85;;;;;;;;;;5087877;28;20075;-75
2021/12/24 01:09:57;;;;;;;33.33;10.65;;;;;;;;;;5086548;28;20530;-75
2021/12/24 01:12:25;;;;;;;32.75;10.98;;;;;;;;;;5087569;28;20046;-73
2021/12/24 01:14:51;;;;;;;24.80;9.60;;;;;;;;;;5087889;28;20047;-75
2021/12/24 01:20:08;;;;;;;25.45;9.82;;;;;;;;;;5104510;28;20074;-74
2021/12/24 01:25:08;;;;;;;27.63;9.02;;;;;;;;;;5084246;28;20060;-75
2021/12/24 01:37:49;;;;;;;28.80;10.40;;;;;;;;;;5084267;28;20513;-74
2021/12/24 01:38:21;;;;;;;27.27;9.85;;;;;;;;;;5084109;28;20052;-74
2021/12/24 01:43:23;;;;;;;29.67;9.30;;;;;;;;;;5085454;28;20135;-75
2021/12/24 01:45:50;;;;;;;22.08;7.70;;;;;;;;;;5070619;28;20127;-74
2021/12/24 01:48:17;;;;;;;22.27;8.50;;;;;;;;;;5070434;28;20403;-74
2021/12/24 01:50:43;;;;;;;16.83;7.70;;;;;;;;;;5070498;28;20048;-74
2021/12/24 01:53:10;;;;;;;17.85;7.53;;;;;;;;;;5070384;28;20037;-75
2021/12/24 01:55:36;;;;;;;19.65;7.45;;;;;;;;;;5070365;28;20040;-74
2021/12/24 01:58:03;;;;;;;16.10;6.90;;;;;;;;;;5070561;28;20047;-75
2021/12/24 02:00:30;;;;;;;15.65;6.53;;;;;;;;;;5070182;28;20048;-75
2021/12/24 02:02:57;;;;;;;14.43;6.93;;;;;;;;;;5069928;28;20067;-75
2021/12/24 02:05:23;;;;;;;16.98;6.72;;;;;;;;;;5070272;28;20143;-74
2021/12/24 02:07:50;;;;;;;16.35;7.13;;;;;;;;;;5070126;28;20094;-75
2021/12/24 02:10:17;;;;;;;13.32;6.13;;;;;;;;;;5070143;28;20247;-75
2021/12/24 02:12:43;;;;;;;14.35;6.47;;;;;;;;;;5070147;28;20032;-75
2021/12/24 02:15:15;;;;;;;14.40;5.88;;;;;;;;;;5070141;28;20040;-75
2021/12/24 02:28:48;;;;;;;12.65;5.40;;;;;;;;;;5086945;28;20045;-75
2021/12/24 02:31:26;;;;;;;8.77;4.65;;;;;;;;;;5069962;28;20364;-74
2021/12/24 02:33:52;;;;;;;10.65;4.25;;;;;;;;;;5069913;28;20127;-73
2021/12/24 02:36:21;;;;;;;9.82;4.38;;;;;;;;;;5069867;28;20044;-74
2021/12/24 02:38:48;;;;;;;9.82;4.72;;;;;;;;;;5070075;28;20512;-74
2021/12/24 02:41:14;;;;;;;10.65;4.85;;;;;;;;;;5069975;28;20063;-74
2021/12/24 02:43:40;;;;;;;9.68;5.13;;;;;;;;;;5069941;28;20036;-74
2021/12/24 02:46:14;;;;;;;8.48;4.28;;;;;;;;;;5069638;28;20048;-75
2021/12/24 02:54:04;;;;;;;7.47;3.67;;;;;;;;;;5087070;28;20045;-74
2021/12/24 02:56:32;;;;;;;7.55;3.55;;;;;;;;;;5069898;28;20040;-74
2021/12/24 02:58:59;;;;;;;8.82;3.95;;;;;;;;;;5069801;28;20424;-74
2021/12/24 03:01:27;;;;;;;6.85;3.97;;;;;;;;;;5069800;28;20075;-73
2021/12/24 03:03:53;;;;;;;10.13;3.88;;;;;;;;;;5069744;28;20135;-74
2021/12/24 03:06:20;;;;;;;5.47;3.50;;;;;;;;;;5069708;28;20091;-73
2021/12/24 03:08:46;;;;;;;5.57;3.33;;;;;;;;;;5069696;28;20041;-74
2021/12/24 03:11:13;;;;;;;7.22;3.47;;;;;;;;;;5069775;28;20048;-75
2021/12/24 03:13:39;;;;;;;7.00;3.67;;;;;;;;;;5069605;28;20033;-74
2021/12/24 03:16:05;;;;;;;7.25;4.00;;;;;;;;;;5069925;28;20071;-74
2021/12/24 03:18:34;;;;;;;6.43;3.20;;;;;;;;;;5069791;28;20052;-75
2021/12/24 03:21:06;;;;;;;5.63;3.15;;;;;;;;;;5069508;28;20051;-73
2021/12/24 03:23:39;;;;;;;7.40;3.35;;;;;;;;;;5069593;28;20052;-72
2021/12/24 03:26:06;;;;;;;5.60;3.28;;;;;;;;;;5069555;28;20090;-73
2021/12/24 03:28:32;;;;;;;4.55;2.72;;;;;;;;;;5066286;28;20044;-75
2021/12/24 03:30:59;;;;;;;4.78;2.47;;;;;;;;;;5066127;28;20040;-73
2021/12/24 03:33:25;;;;;;;6.95;3.53;;;;;;;;;;5068048;28;20044;-73
2021/12/24 03:35:51;;;;;;;9.50;3.78;;;;;;;;;;5069432;28;20043;-72
2021/12/24 03:38:17;;;;;;;8.82;3.53;;;;;;;;;;5069462;28;20120;-74
2021/12/24 03:40:43;;;;;;;6.70;3.45;;;;;;;;;;5069641;28;20060;-72
2021/12/24 03:43:09;;;;;;;7.05;3.42;;;;;;;;;;5069405;28;20094;-73
2021/12/24 03:45:48;;;;;;;8.00;4.10;;;;;;;;;;5068707;28;20431;-72
2021/12/24 03:48:19;;;;;;;10.10;4.22;;;;;;;;;;5068929;28;20049;-74
2021/12/24 03:56:15;;;;;;;12.88;4.80;;;;;;;;;;5096829;28;20048;-74
2021/12/24 03:58:41;;;;;;;15.18;5.20;;;;;;;;;;5079110;28;20032;-72
2021/12/24 04:01:07;;;;;;;15.02;5.18;;;;;;;;;;5077759;28;20119;-75
2021/12/24 04:03:33;;;;;;;13.25;5.57;;;;;;;;;;5079092;28;20059;-74
2021/12/24 04:05:59;;;;;;;17.75;7.00;;;;;;;;;;5078603;28;20400;-75
2021/12/24 04:08:25;;;;;;;15.13;6.38;;;;;;;;;;5077177;28;20048;-74
2021/12/24 04:10:51;;;;;;;20.45;6.60;;;;;;;;;;5079573;28;20118;-73
2021/12/24 04:13:17;;;;;;;18.05;6.65;;;;;;;;;;5078397;28;20116;-73
2021/12/24 04:15:43;;;;;;;20.33;6.82;;;;;;;;;;5077653;28;20044;-73
2021/12/24 04:18:18;;;;;;;23.55;7.22;;;;;;;;;;5079463;28;20096;-74
2021/12/24 04:26:14;;;;;;;22.98;7.57;;;;;;;;;;5105485;28;20112;-74
2021/12/24 04:28:40;;;;;;;15.88;5.55;;;;;;;;;;5088886;28;20051;-76
2021/12/24 04:31:06;;;;;;;18.98;7.80;;;;;;;;;;5089140;28;20040;-74
2021/12/24 04:33:36;;;;;;;17.55;7.13;;;;;;;;;;5088122;28;20469;-77
2021/12/24 04:39:07;;;;;;;27.15;7.75;;;;;;;;;;5108365;28;20418;-75
2021/12/24 05:03:33;;;;;;;23.35;8.00;;;;;;;;;;5108587;28;20060;-76
2021/12/24 05:06:11;;;;;;;31.73;9.75;;;;;;;;;;5091699;28;20147;-75
2021/12/24 05:09:12;;;;;;;23.88;9.02;;;;;;;;;;5091517;28;20136;-78
2021/12/24 05:11:29;;;;;;;27.83;10.25;;;;;;;;;;5088713;28;20579;-75
2021/12/24 05:13:55;;;;;;;25.73;10.13;;;;;;;;;;5091612;28;20170;-72
2021/12/24 05:16:25;;;;;;;23.27;8.68;;;;;;;;;;5091198;28;20648;-75
2021/12/24 05:21:32;;;;;;;26.52;9.13;;;;;;;;;;5091507;28;20036;-71
2021/12/24 05:21:44;;;;;;;22.05;9.45;;;;;;;;;;5091492;28;20396;-76
2021/12/24 05:24:10;;;;;;;23.90;8.57;;;;;;;;;;5091279;28;20047;-73
2021/12/24 05:26:36;;;;;;;25.50;8.70;;;;;;;;;;5090997;28;20051;-77
2021/12/24 05:29:03;;;;;;;22.98;8.68;;;;;;;;;;5091335;28;20044;-75
2021/12/24 05:31:30;;;;;;;17.73;8.73;;;;;;;;;;5091069;28;20511;-75
2021/12/24 05:33:56;;;;;;;25.95;8.13;;;;;;;;;;5091012;28;20054;-77
2021/12/24 05:36:22;;;;;;;21.02;8.57;;;;;;;;;;5091056;28;20040;-73
2021/12/24 05:38:48;;;;;;;20.80;9.60;;;;;;;;;;5091115;28;20076;-74
2021/12/24 05:41:14;;;;;;;23.85;10.15;;;;;;;;;;5090888;28;20121;-74
2021/12/24 05:43:41;;;;;;;25.65;10.13;;;;;;;;;;5091406;28;20032;-76
2021/12/24 05:46:06;;;;;;;29.80;11.85;;;;;;;;;;5090512;28;20503;-74
2021/12/24 05:48:32;;;;;;;34.05;11.00;;;;;;;;;;5090691;28;20054;-76
2021/12/24 05:50:58;;;;;;;24.65;10.43;;;;;;;;;;5091054;28;20527;-74
2021/12/24 05:53:25;;;;;;;30.65;11.35;;;;;;;;;;5090698;28;20067;-71
2021/12/24 05:55:51;;;;;;;29.70;11.40;;;;;;;;;;5089997;28;20492;-72
2021/12/24 05:58:17;;;;;;;29.52;10.60;;;;;;;;;;5090536;28;20043;-74
2021/12/24 06:00:43;;;;;;;24.80;11.90;;;;;;;;;;5090759;28;20089;-73
2021/12/24 06:03:10;;;;;;;32.22;12.32;;;;;;;;;;5090328;28;20488;-72
2021/12/24 06:05:36;;;;;;;28.50;10.48;;;;;;;;;;5090963;28;20519;-75
2021/12/24 06:08:02;;;;;;;31.02;11.52;;;;;;;;;;5090318;28;20072;-78
2021/12/24 06:10:29;;;;;;;24.95;10.90;;;;;;;;;;5090405;28;20040;-76
2021/12/24 06:12:56;;;;;;;29.52;10.90;;;;;;;;;;5090412;28;20036;-73
2021/12/24 06:15:24;;;;;;;31.77;12.27;;;;;;;;;;5090497;28;20044;-76
2021/12/24 06:17:54;;;;;;;28.77;11.55;;;;;;;;;;5090719;28;20048;-76
2021/12/24 06:20:20;;;;;;;33.58;11.85;;;;;;;;;;5090597;28;20048;-76
2021/12/24 06:22:46;;;;;;;32.63;10.80;;;;;;;;;;5090458;28;20048;-75
2021/12/24 06:25:12;;;;;;;32.85;11.07;;;;;;;;;;5090660;28;20040;-74
2021/12/24 06:27:39;;;;;;;31.33;11.23;;;;;;;;;;5090328;28;20040;-76
2021/12/24 06:30:06;;;;;;;33.83;10.88;;;;;;;;;;5090152;28;20047;-74
2021/12/24 06:32:32;;;;;;;30.88;10.55;;;;;;;;;;5090220;28;20036;-75
2021/12/24 06:34:58;;;;;;;28.63;10.25;;;;;;;;;;5090526;28;20491;-73
2021/12/24 06:37:25;;;;;;;23.50;9.95;;;;;;;;;;5090057;28;20040;-73
2021/12/24 06:39:51;;;;;;;31.23;10.88;;;;;;;;;;5090200;28;20793;-78
2021/12/24 06:42:17;;;;;;;23.35;9.35;;;;;;;;;;5090104;28;20035;-74
2021/12/24 06:44:43;;;;;;;24.95;8.55;;;;;;;;;;5090533;28;20044;-72
2021/12/24 06:47:09;;;;;;;22.80;8.48;;;;;;;;;;5090189;28;20074;-75
2021/12/24 06:49:35;;;;;;;26.70;9.05;;;;;;;;;;5090052;28;20036;-76
2021/12/24 06:52:01;;;;;;;23.98;9.25;;;;;;;;;;5090548;28;20539;-77
2021/12/24 06:54:27;;;;;;;21.77;8.48;;;;;;;;;;5090337;28;20059;-78
2021/12/24 06:56:53;;;;;;;24.25;8.48;;;;;;;;;;5090302;28;20040;-76
2021/12/24 06:59:19;;;;;;;19.85;8.75;;;;;;;;;;5090114;28;20131;-78
2021/12/24 07:01:45;;;;;;;18.15;7.82;;;;;;;;;;5089849;28;20089;-74
2021/12/24 07:04:11;;;;;;;24.35;7.63;;;;;;;;;;5090002;28;20115;-77
2021/12/24 07:06:43;;;;;;;23.10;7.60;;;;;;;;;;5091595;28;20507;-75
2021/12/24 07:09:09;;;;;;;20.98;8.15;;;;;;;;;;5094086;28;20044;-76
2021/12/24 07:11:35;;;;;;;29.75;8.98;;;;;;;;;;5094133;28;20431;-74
2021/12/24 07:14:01;;;;;;;17.85;6.80;;;;;;;;;;5093904;28;20043;-72
2021/12/24 07:16:27;;;;;;;30.02;8.55;;;;;;;;;;5093921;28;20164;-77
2021/12/24 07:18:53;;;;;;;22.67;7.90;;;;;;;;;;5093696;28;20502;-75
2021/12/24 07:21:19;;;;;;;15.32;7.22;;;;;;;;;;5093782;28;20094;-74
2021/12/24 07:23:45;;;;;;;18.27;7.13;;;;;;;;;;5093358;28;20644;-77
2021/12/24 07:26:11;;;;;;;13.05;5.50;;;;;;;;;;5093574;28;20032;-75
2021/12/24 07:28:37;;;;;;;13.43;6.35;;;;;;;;;;5093380;28;20040;-76
2021/12/24 07:31:03;;;;;;;19.08;6.97;;;;;;;;;;5093691;28;20492;-78
2021/12/24 07:33:29;;;;;;;20.98;6.88;;;;;;;;;;5093329;28;20101;-73
2021/12/24 07:35:55;;;;;;;19.95;6.68;;;;;;;;;;5093035;28;20514;-75
2021/12/24 07:38:21;;;;;;;17.80;6.88;;;;;;;;;;5093637;28;20036;-75
2021/12/24 07:40:47;;;;;;;17.85;6.85;;;;;;;;;;5093047;28;20044;-74
2021/12/24 07:43:13;;;;;;;21.00;6.28;;;;;;;;;;5093058;28;20418;-74
2021/12/24 07:45:41;;;;;;;14.50;5.28;;;;;;;;;;5092694;28;20135;-74
2021/12/24 07:48:15;;;;;;;17.00;6.15;;;;;;;;;;5092993;28;20051;-75
2021/12/24 07:53:09;;;;;;;15.00;5.97;;;;;;;;;;5110164;28;20079;-74
2021/12/24 07:55:36;;;;;;;22.15;5.90;;;;;;;;;;5092947;28;20043;-77
2021/12/24 07:58:03;;;;;;;15.88;5.72;;;;;;;;;;5093002;28;20054;-74
2021/12/24 08:00:29;;;;;;;19.75;6.20;;;;;;;;;;5093113;28;20098;-77
2021/12/24 08:02:55;;;;;;;13.90;6.15;;;;;;;;;;5092496;28;20066;-75
2021/12/24 08:05:25;;;;;;;20.10;6.35;;;;;;;;;;5093404;28;20052;-77
2021/12/24 08:07:51;;;;;;;12.35;6.35;;;;;;;;;;5090969;28;20048;-74
2021/12/24 08:10:17;;;;;;;17.75;5.82;;;;;;;;;;5072328;28;20404;-76
2021/12/24 08:12:43;;;;;;;19.90;5.85;;;;;;;;;;5072378;28;20041;-78
2021/12/24 08:15:09;;;;;;;13.75;5.82;;;;;;;;;;5072574;28;20514;-74
2021/12/24 08:17:36;;;;;;;10.95;5.43;;;;;;;;;;5072034;28;20048;-75
2021/12/24 08:20:02;;;;;;;15.25;5.82;;;;;;;;;;5072344;28;20040;-74
2021/12/24 08:22:28;;;;;;;12.73;5.50;;;;;;;;;;5072392;28;20044;-76
2021/12/24 08:24:54;;;;;;;9.68;4.35;;;;;;;;;;5072358;28;20441;-74
2021/12/24 08:27:21;;;;;;;7.47;4.35;;;;;;;;;;5072355;28;20051;-77
2021/12/24 08:29:47;;;;;;;9.23;4.30;;;;;;;;;;5072211;28;20062;-77
2021/12/24 08:32:13;;;;;;;14.10;4.80;;;;;;;;;;5071952;28;20039;-72
2021/12/24 08:34:40;;;;;;;18.38;4.93;;;;;;;;;;5071994;28;20075;-75
2021/12/24 08:37:06;;;;;;;10.63;4.13;;;;;;;;;;5071856;28;20415;-77
2021/12/24 08:39:32;;;;;;;10.07;3.92;;;;;;;;;;5070139;28;20082;-79
2021/12/24 08:41:59;;;;;;;14.65;4.45;;;;;;;;;;5068471;28;20037;-74
2021/12/24 08:44:27;;;;;;;14.35;5.30;;;;;;;;;;5068000;28;20048;-76
2021/12/24 08:46:53;;;;;;;13.05;4.57;;;;;;;;;;5068680;28;20051;-75
2021/12/24 08:49:20;;;;;;;10.85;4.18;;;;;;;;;;5068378;28;20110;-75
2021/12/24 08:51:47;;;;;;;13.63;4.50;;;;;;;;;;5068053;28;20048;-75
2021/12/24 08:54:13;;;;;;;11.90;4.20;;;;;;;;;;5073213;28;20157;-76
2021/12/24 08:56:39;;;;;;;10.77;4.57;;;;;;;;;;5088087;28;20480;-74
2021/12/24 08:59:05;;;;;;;11.05;4.25;;;;;;;;;;5088327;28;20138;-74
2021/12/24 09:01:31;;;;;;;10.43;4.05;;;;;;;;;;5088391;28;20035;-76
2021/12/24 09:03:57;;;;;;;9.25;4.07;;;;;;;;;;5091515;28;20137;-74
2021/12/24 09:06:24;;;;;;;11.35;3.90;;;;;;;;;;5091518;28;20080;-78
2021/12/24 09:08:50;;;;;;;8.43;3.00;;;;;;;;;;5091702;28;20085;-74
2021/12/24 09:11:16;;;;;;;9.60;4.00;;;;;;;;;;5091317;28;20154;-73
2021/12/24 09:13:42;;;;;;;9.05;3.88;;;;;;;;;;5091696;28;20047;-75
2021/12/24 09:16:08;;;;;;;7.53;3.35;;;;;;;;;;5091640;28;20076;-75
2021/12/24 09:18:35;;;;;;;12.63;4.55;;;;;;;;;;5091412;28;20048;-73
2021/12/24 09:21:03;;;;;;;10.20;3.97;;;;;;;;;;5091541;28;20076;-72
2021/12/24 09:23:29;;;;;;;12.02;3.40;;;;;;;;;;5091568;28;20052;-77
2021/12/24 09:25:54;;;;;;;11.10;3.92;;;;;;;;;;5091222;28;20084;-75
2021/12/24 09:28:20;;;;;;;7.20;3.20;;;;;;;;;;5090972;28;20550;-74
2021/12/24 09:30:46;;;;;;;5.90;2.58;;;;;;;;;;5090418;28;20278;-74
2021/12/24 09:33:13;;;;;;;7.60;3.15;;;;;;;;;;5085713;28;20507;-74
2021/12/24 09:35:39;;;;;;;7.72;3.03;;;;;;;;;;5067083;28;20052;-73
2021/12/24 09:38:05;;;;;;;6.70;3.47;;;;;;;;;;5066808;28;20127;-73
2021/12/24 09:40:33;;;;;;;5.93;2.80;;;;;;;;;;5067040;28;20047;-72
2021/12/24 09:42:59;;;;;;;10.20;2.50;;;;;;;;;;5067273;28;20102;-75
2021/12/24 09:45:25;;;;;;;6.50;3.08;;;;;;;;;;5067387;28;20056;-75
2021/12/24 09:47:52;;;;;;;6.60;2.83;;;;;;;;;;5067115;28;20053;-74
2021/12/24 09:50:22;;;;;;;5.43;2.97;;;;;;;;;;5066607;28;20048;-75
2021/12/24 09:52:49;;;;;;;6.57;3.78;;;;;;;;;;5066986;28;20046;-73
2021/12/24 09:55:19;;;;;;;7.40;2.92;;;;;;;;;;5067155;28;20094;-78
2021/12/24 09:57:46;;;;;;;8.00;3.20;;;;;;;;;;5067019;28;20044;-77
2021/12/24 10:00:13;;;;;;;8.40;3.30;;;;;;;;;;5067113;28;20043;-73
2021/12/24 10:02:44;;;;;;;6.97;3.22;;;;;;;;;;5066322;28;20051;-77
2021/12/24 10:05:42;;;;;;;5.30;2.78;;;;;;;;;;5067054;28;20057;-74
2021/12/24 10:08:11;;;;;;;4.45;2.20;;;;;;;;;;5044486;28;20092;-75
2021/12/24 10:10:41;;;;;;;5.68;2.65;;;;;;;;;;5066902;28;20129;-80
2021/12/24 10:13:26;;;;;;;2.28;1.23;;;;;;;;;;5067529;28;20055;-75
2021/12/24 10:15:56;;;;;;;2.78;1.00;;;;;;;;;;5066306;28;20052;-77
2021/12/24 10:18:30;;;;;;;1.42;1.02;;;;;;;;;;5067381;28;20131;-80
2021/12/24 10:21:19;;;;;;;1.52;1.17;;;;;;;;;;5067484;28;20051;-78
2021/12/24 10:23:48;;;;;;;1.33;1.05;;;;;;;;;;5044688;28;20055;-80
2021/12/24 10:26:19;;;;;;;1.05;0.95;;;;;;;;;;5066328;28;20715;-79
2021/12/24 10:28:53;;;;;;;3.03;1.40;;;;;;;;;;5066546;28;20385;-79
2021/12/24 10:31:19;;;;;;;1.50;1.10;;;;;;;;;;5066983;28;20051;-75
2021/12/24 10:34:04;;;;;;;1.88;1.45;;;;;;;;;;5066514;28;20037;-76
2021/12/24 10:36:30;;;;;;;3.63;2.03;;;;;;;;;;5066675;28;20068;-74
2021/12/24 10:38:56;;;;;;;4.78;2.25;;;;;;;;;;5066038;28;20064;-75
2021/12/24 10:41:25;;;;;;;1.88;1.42;;;;;;;;;;5067490;28;20093;-77
2021/12/24 10:43:51;;;;;;;4.40;1.83;;;;;;;;;;5070794;28;20040;-77
2021/12/24 10:46:24;;;;;;;2.72;1.80;;;;;;;;;;5070577;28;20136;-76
2021/12/24 10:49:02;;;;;;;1.67;1.23;;;;;;;;;;5070324;28;20050;-78
2021/12/24 10:51:54;;;;;;;2.90;1.85;;;;;;;;;;5069967;28;20479;-76
2021/12/24 10:54:18;;;;;;;2.13;1.10;;;;;;;;;;5087069;28;20044;-76
2021/12/24 10:56:44;;;;;;;1.60;1.00;;;;;;;;;;5070283;28;20048;-77
2021/12/24 10:59:12;;;;;;;3.42;1.48;;;;;;;;;;5070520;28;20453;-75
2021/12/24 11:01:38;;;;;;;1.10;0.98;;;;;;;;;;5080120;28;20050;-76
2021/12/24 11:04:04;;;;;;;2.15;1.00;;;;;;;;;;5090242;28;20048;-76
2021/12/24 11:06:31;;;;;;;2.65;1.83;;;;;;;;;;5090439;28;20051;-76
2021/12/24 11:08:59;;;;;;;4.82;2.25;;;;;;;;;;5090729;28;20097;-74
2021/12/24 11:11:25;;;;;;;1.90;1.58;;;;;;;;;;5090232;28;20510;-76
2021/12/24 11:13:52;;;;;;;2.05;1.60;;;;;;;;;;5089721;28;20047;-75
2021/12/24 11:16:19;;;;;;;1.30;1.08;;;;;;;;;;5107141;28;20048;-77
2021/12/24 11:18:53;;;;;;;3.30;1.48;;;;;;;;;;5090278;28;20484;-78
2021/12/24 11:21:21;;;;;;;2.53;1.27;;;;;;;;;;5090400;28;20491;-78
2021/12/24 11:23:47;;;;;;;2.05;1.38;;;;;;;;;;5090424;28;20052;-77
2021/12/24 11:26:13;;;;;;;2.50;1.38;;;;;;;;;;5089963;28;20070;-76
2021/12/24 11:28:40;;;;;;;3.67;1.65;;;;;;;;;;5089784;28;20044;-75
2021/12/24 11:31:08;;;;;;;3.38;2.00;;;;;;;;;;5090010;28;20050;-77
2021/12/24 11:33:35;;;;;;;4.60;2.35;;;;;;;;;;5090056;28;20510;-76
2021/12/24 11:36:03;;;;;;;2.30;1.92;;;;;;;;;;5089679;28;20040;-76
2021/12/24 11:38:32;;;;;;;1.25;1.00;;;;;;;;;;5089250;28;20048;-76
2021/12/24 11:40:59;;;;;;;2.53;1.58;;;;;;;;;;5090009;28;20040;-75
2021/12/24 11:43:29;;;;;;;3.10;2.03;;;;;;;;;;5089450;28;20086;-75
2021/12/24 11:45:59;;;;;;;4.35;2.38;;;;;;;;;;5070575;28;20246;-74
2021/12/24 11:48:31;;;;;;;3.08;2.00;;;;;;;;;;5068963;28;20040;-74
2021/12/24 11:50:58;;;;;;;2.83;1.50;;;;;;;;;;5086186;28;20060;-74
2021/12/24 11:53:25;;;;;;;2.75;1.30;;;;;;;;;;5068508;28;20036;-74
2021/12/24 11:55:51;;;;;;;2.55;1.42;;;;;;;;;;5069217;28;20453;-74
2021/12/24 11:58:21;;;;;;;3.20;2.00;;;;;;;;;;5069049;28;20044;-76
2021/12/24 12:00:49;;;;;;;2.67;1.57;;;;;;;;;;5069339;28;20040;-74
2021/12/24 12:03:49;;;;;;;3.38;2.10;;;;;;;;;;5068451;28;20303;-74
2021/12/24 12:06:18;;;;;;;4.40;2.20;;;;;;;;;;5026636;28;20083;-74
2021/12/24 12:08:45;;;;;;;4.32;2.67;;;;;;;;;;5068812;28;20048;-74
2021/12/24 12:11:14;;;;;;;6.45;2.80;;;;;;;;;;5069170;28;20048;-74
2021/12/24 12:13:45;;;;;;;4.95;3.13;;;;;;;;;;5068734;28;20044;-74
2021/12/24 12:16:31;;;;;;;5.53;3.55;;;;;;;;;;5075717;28;20044;-74
2021/12/24 12:19:43;;;;;;;5.57;3.17;;;;;;;;;;5074952;28;20325;-74
2021/12/24 12:25:00;;;;;;;6.45;3.47;;;;;;;;;;5106149;28;20052;-74
2021/12/24 12:27:45;;;;;;;8.00;3.20;;;;;;;;;;5086530;28;20040;-74
2021/12/24 12:30:19;;;;;;;5.78;3.35;;;;;;;;;;5095540;28;20085;-73
2021/12/24 12:32:45;;;;;;;7.85;3.67;;;;;;;;;;5085854;28;20043;-73
2021/12/24 12:35:11;;;;;;;6.90;3.60;;;;;;;;;;5079986;28;20113;-73
2021/12/24 12:37:48;;;;;;;5.85;3.22;;;;;;;;;;5076476;28;20540;-74
2021/12/24 12:40:17;;;;;;;7.22;3.80;;;;;;;;;;5080117;28;20051;-74
2021/12/24 12:42:53;;;;;;;5.35;2.90;;;;;;;;;;5088881;28;20398;-73
2021/12/24 12:45:21;;;;;;;8.85;3.55;;;;;;;;;;5063619;28;20032;-71
2021/12/24 12:47:52;;;;;;;4.93;2.72;;;;;;;;;;5079365;28;20044;-73
2021/12/24 12:50:18;;;;;;;3.97;2.42;;;;;;;;;;5091751;28;20181;-74
2021/12/24 12:52:45;;;;;;;5.38;2.70;;;;;;;;;;5091996;28;20089;-74
2021/12/24 12:55:28;;;;;;;3.92;2.42;;;;;;;;;;5091853;28;20438;-74
2021/12/24 12:58:14;;;;;;;4.57;2.50;;;;;;;;;;5091959;28;20044;-74
2021/12/24 13:00:40;;;;;;;4.60;2.88;;;;;;;;;;5091450;28;20135;-73
2021/12/24 13:03:07;;;;;;;5.72;2.70;;;;;;;;;;5091483;28;20504;-73
2021/12/24 13:05:42;;;;;;;3.45;2.42;;;;;;;;;;5091371;28;20052;-73
2021/12/24 13:08:15;;;;;;;6.28;2.80;;;;;;;;;;5091520;28;20044;-74
2021/12/24 13:10:53;;;;;;;4.93;2.72;;;;;;;;;;5091362;28;20048;-74
2021/12/24 13:13:21;;;;;;;5.70;2.67;;;;;;;;;;5091711;28;20050;-73
2021/12/24 13:15:47;;;;;;;4.50;2.58;;;;;;;;;;5091776;28;20098;-74
2021/12/24 13:18:27;;;;;;;5.35;2.70;;;;;;;;;;5091325;28;20054;-74
2021/12/24 13:23:29;;;;;;;4.80;3.17;;;;;;;;;;5108649;28;20039;-73
2021/12/24 13:25:55;;;;;;;3.92;2.40;;;;;;;;;;5091229;28;20071;-73
2021/12/24 13:28:21;;;;;;;4.28;2.53;;;;;;;;;;5090919;28;20546;-74
2021/12/24 13:30:47;;;;;;;4.68;2.95;;;;;;;;;;5079833;28;20439;-74
2021/12/24 13:33:13;;;;;;;5.68;3.08;;;;;;;;;;5071011;28;20377;-74
2021/12/24 13:35:42;;;;;;;4.00;2.60;;;;;;;;;;5070821;28;20033;-73
2021/12/24 13:38:19;;;;;;;3.40;2.42;;;;;;;;;;5070481;28;20040;-74
2021/12/24 13:40:45;;;;;;;3.90;2.78;;;;;;;;;;5070872;28;20103;-73
2021/12/24 13:43:13;;;;;;;4.32;2.95;;;;;;;;;;5070200;28;20036;-74
2021/12/24 13:45:39;;;;;;;5.00;2.47;;;;;;;;;;5070883;28;20040;-73
2021/12/24 13:48:12;;;;;;;4.88;3.15;;;;;;;;;;5070342;28;20044;-74
2021/12/24 13:56:39;;;;;;;4.35;2.80;;;;;;;;;;5087204;28;20044;-73
2021/12/24 13:59:06;;;;;;;5.63;3.20;;;;;;;;;;5070451;28;20037;-74
2021/12/24 14:01:32;;;;;;;5.13;2.78;;;;;;;;;;5087058;28;20040;-74
2021/12/24 14:03:59;;;;;;;4.50;2.80;;;;;;;;;;5070038;28;20144;-73
2021/12/24 14:06:52;;;;;;;3.28;2.42;;;;;;;;;;5066673;28;20083;-73
2021/12/24 14:09:20;;;;;;;4.07;2.50;;;;;;;;;;5047819;28;20511;-73
2021/12/24 14:11:48;;;;;;;3.78;2.30;;;;;;;;;;5066460;28;20051;-73
2021/12/24 14:14:21;;;;;;;4.30;2.80;;;;;;;;;;5071599;28;20036;-73
2021/12/24 14:19:32;;;;;;;4.55;2.80;;;;;;;;;;5083662;28;20332;-73
2021/12/24 14:22:12;;;;;;;8.73;4.47;;;;;;;;;;5066553;28;20494;-73
2021/12/24 14:24:50;;;;;;;5.70;3.67;;;;;;;;;;5066572;28;20570;-73
2021/12/24 14:27:18;;;;;;;6.30;3.08;;;;;;;;;;5066615;28;20045;-74
2021/12/24 14:29:45;;;;;;;5.43;2.85;;;;;;;;;;5066858;28;20044;-73
2021/12/24 14:32:12;;;;;;;7.03;3.28;;;;;;;;;;5066679;28;20045;-73
2021/12/24 14:34:38;;;;;;;3.80;3.10;;;;;;;;;;5066446;28;20537;-73
2021/12/24 14:37:09;;;;;;;4.10;3.35;;;;;;;;;;5066403;28;20045;-74
2021/12/24 14:39:36;;;;;;;5.50;2.92;;;;;;;;;;5066391;28;20531;-73
2021/12/24 14:42:22;;;;;;;5.22;2.97;;;;;;;;;;5066529;28;20131;-73
2021/12/24 14:44:49;;;;;;;4.35;2.80;;;;;;;;;;5066363;28;20408;-73
2021/12/24 14:47:19;;;;;;;5.57;2.90;;;;;;;;;;5065767;28;20056;-72
2021/12/24 14:49:45;;;;;;;4.53;2.60;;;;;;;;;;5077056;28;20040;-73
2021/12/24 14:52:15;;;;;;;4.57;2.97;;;;;;;;;;5077732;28;20040;-73
2021/12/24 14:55:00;;;;;;;6.33;3.03;;;;;;;;;;5075750;28;20040;-72
2021/12/24 14:57:26;;;;;;;5.53;3.33;;;;;;;;;;5085530;28;20274;-74
2021/12/24 14:59:52;;;;;;;3.95;3.00;;;;;;;;;;5076503;28;20067;-72
2021/12/24 15:02:18;;;;;;;6.25;3.47;;;;;;;;;;5075707;28;20441;-73
2021/12/24 15:04:44;;;;;;;4.80;2.92;;;;;;;;;;5075004;28;20052;-73
2021/12/24 15:07:10;;;;;;;3.88;2.80;;;;;;;;;;5076616;28;20056;-73
2021/12/24 15:09:38;;;;;;;5.15;2.60;;;;;;;;;;5075372;28;20041;-73
2021/12/24 15:12:22;;;;;;;4.70;3.28;;;;;;;;;;5074848;28;20458;-73
2021/12/24 15:14:48;;;;;;;8.75;2.92;;;;;;;;;;5093599;28;20058;-73
2021/12/24 15:17:14;;;;;;;5.20;3.35;;;;;;;;;;5075341;28;20563;-73
2021/12/24 15:19:40;;;;;;;5.18;3.38;;;;;;;;;;5075800;28;20139;-73
2021/12/24 15:22:06;;;;;;;5.32;3.47;;;;;;;;;;5076265;28;20040;-74
2021/12/24 15:24:31;;;;;;;5.47;3.25;;;;;;;;;;5074725;28;20036;-73
2021/12/24 15:26:58;;;;;;;6.43;3.15;;;;;;;;;;5076319;28;20094;-73
2021/12/24 15:29:24;;;;;;;3.80;2.33;;;;;;;;;;5080385;28;20036;-75
2021/12/24 15:31:50;;;;;;;5.18;3.13;;;;;;;;;;5078337;28;20108;-74
2021/12/24 15:34:16;;;;;;;4.38;2.28;;;;;;;;;;5079123;28;20128;-74
2021/12/24 15:36:42;;;;;;;6.13;3.13;;;;;;;;;;5080016;28;20055;-74
2021/12/24 15:39:08;;;;;;;4.65;3.10;;;;;;;;;;5077967;28;20048;-74
2021/12/24 15:41:34;;;;;;;4.85;2.67;;;;;;;;;;5079832;28;20040;-74
2021/12/24 15:44:00;;;;;;;6.18;2.67;;;;;;;;;;5079602;28;20032;-74
2021/12/24 15:46:27;;;;;;;4.15;2.90;;;;;;;;;;5077547;28;20160;-73
2021/12/24 15:48:53;;;;;;;4.47;2.13;;;;;;;;;;5078757;28;20065;-74
2021/12/24 15:51:19;;;;;;;3.10;2.20;;;;;;;;;;5078842;28;20456;-73
2021/12/24 15:53:45;;;;;;;4.75;2.20;;;;;;;;;;5079573;28;20043;-73
2021/12/24 15:56:11;;;;;;;4.55;2.63;;;;;;;;;;5077219;28;20381;-74
2021/12/24 15:58:38;;;;;;;4.10;2.40;;;;;;;;;;5078429;28;20408;-73
2021/12/24 16:01:05;;;;;;;4.45;2.10;;;;;;;;;;5079046;28;20152;-75
2021/12/24 16:03:31;;;;;;;3.22;1.73;;;;;;;;;;5077259;28;20432;-76
2021/12/24 16:05:57;;;;;;;3.22;1.73;;;;;;;;;;5080156;28;20084;-77
2021/12/24 16:08:25;;;;;;;3.30;1.25;;;;;;;;;;5080175;28;20511;-77
2021/12/24 16:10:52;;;;;;;2.78;1.75;;;;;;;;;;5076169;28;20096;-79
2021/12/24 16:13:20;;;;;;;4.45;1.70;;;;;;;;;;5078462;28;20093;-76
2021/12/24 16:15:48;;;;;;;6.97;3.35;;;;;;;;;;5077997;28;21077;-78
2021/12/24 16:18:14;;;;;;;8.45;2.97;;;;;;;;;;5051926;28;20044;-77
2021/12/24 16:20:40;;;;;;;5.68;1.73;;;;;;;;;;5068495;28;20412;-74
2021/12/24 16:23:06;;;;;;;4.88;1.80;;;;;;;;;;5068278;28;20080;-75
2021/12/24 16:25:32;;;;;;;3.28;1.35;;;;;;;;;;5069145;28;20633;-77